createdAt,value
2019-05-11T00:02:23.861Z,8.80
2019-05-11T00:04:52.490Z,8.90
2019-05-11T00:07:21.201Z,9.00
2019-05-11T00:09:58.252Z,9.00
2019-05-11T00:12:20.704Z,9.00
2019-05-11T00:14:49.338Z,9.00
2019-05-11T00:17:18.370Z,9.00
2019-05-11T00:19:47.104Z,8.90
2019-05-11T00:22:15.760Z,8.70
2019-05-11T00:24:44.422Z,8.60
2019-05-11T00:27:13.083Z,8.50
2019-05-11T00:29:41.797Z,8.40
2019-05-11T00:32:10.492Z,8.30
2019-05-11T00:34:39.147Z,8.20
2019-05-11T00:37:07.878Z,8.10
2019-05-11T00:39:36.783Z,8.00
2019-05-11T00:42:05.856Z,8.00
2019-05-11T00:44:34.491Z,8.00
2019-05-11T00:47:03.162Z,8.00
2019-05-11T00:49:32.132Z,8.00
2019-05-11T00:52:00.790Z,8.00
2019-05-11T00:54:29.722Z,7.90
2019-05-11T00:56:58.388Z,7.90
2019-05-11T00:59:27.030Z,7.90
2019-05-11T01:01:55.675Z,7.90
2019-05-11T01:04:24.651Z,7.90
2019-05-11T01:06:53.315Z,7.90
2019-05-11T01:09:21.963Z,7.90
2019-05-11T01:11:50.619Z,7.90
2019-05-11T01:14:19.300Z,8.00
2019-05-11T01:16:48.310Z,8.00
2019-05-11T01:19:17.277Z,8.00
2019-05-11T01:21:45.919Z,8.00
2019-05-11T01:24:15.042Z,8.00
2019-05-11T01:26:44.010Z,8.00
2019-05-11T01:29:13.058Z,7.90
2019-05-11T01:31:41.784Z,7.90
2019-05-11T01:34:10.414Z,7.80
2019-05-11T01:36:39.510Z,7.70
2019-05-11T01:39:08.519Z,7.70
2019-05-11T01:41:37.260Z,7.60
2019-05-11T01:44:05.915Z,7.60
2019-05-11T01:46:34.607Z,7.40
2019-05-11T01:49:03.453Z,7.30
2019-05-11T01:51:32.170Z,7.30
2019-05-11T01:54:01.471Z,7.20
2019-05-11T01:56:30.135Z,7.20
2019-05-11T01:58:58.998Z,7.10
2019-05-11T02:01:27.739Z,7.10
2019-05-11T02:03:56.402Z,7.10
2019-05-11T02:06:25.091Z,7.00
2019-05-11T02:08:53.732Z,7.00
2019-05-11T02:11:22.815Z,6.90
2019-05-11T02:13:51.468Z,6.90
2019-05-11T02:16:20.111Z,6.90
2019-05-11T02:18:48.864Z,6.90
2019-05-11T02:21:17.829Z,6.90
2019-05-11T02:23:47.130Z,6.90
2019-05-11T02:26:15.772Z,6.90
2019-05-11T02:28:44.436Z,6.90
2019-05-11T02:31:13.067Z,6.90
2019-05-11T02:33:41.987Z,6.80
2019-05-11T02:36:10.705Z,6.80
2019-05-11T02:38:39.338Z,6.80
2019-05-11T02:41:09.283Z,6.80
2019-05-11T02:43:38.165Z,6.80
2019-05-11T02:46:06.863Z,6.80
2019-05-11T02:48:35.616Z,6.80
2019-05-11T02:51:04.250Z,6.90
2019-05-11T02:53:34.567Z,6.90
2019-05-11T02:56:04.283Z,6.80
2019-05-11T02:58:33.018Z,6.90
2019-05-11T03:01:01.923Z,6.90
2019-05-11T03:03:30.558Z,7.00
2019-05-11T03:05:59.283Z,7.00
2019-05-11T03:08:28.200Z,7.00
2019-05-11T03:10:56.876Z,7.00
2019-05-11T03:13:25.518Z,7.10
2019-05-11T03:15:54.185Z,7.10
2019-05-11T03:18:23.126Z,7.10
2019-05-11T03:20:51.765Z,7.10
2019-05-11T03:23:20.501Z,7.10
2019-05-11T03:25:49.136Z,7.00
2019-05-11T03:28:17.802Z,7.00
2019-05-11T03:30:46.680Z,7.10
2019-05-11T03:33:15.721Z,7.10
2019-05-11T03:35:44.360Z,7.10
2019-05-11T03:38:13.387Z,7.10
2019-05-11T03:40:42.030Z,7.10
2019-05-11T03:43:10.799Z,7.10
2019-05-11T03:45:39.946Z,7.10
2019-05-11T03:48:08.640Z,7.10
2019-05-11T03:50:37.623Z,7.20
2019-05-11T03:53:06.279Z,7.30
2019-05-11T03:55:34.935Z,7.30
2019-05-11T03:58:03.606Z,7.40
2019-05-11T04:00:32.236Z,7.40
2019-05-11T04:03:00.891Z,7.40
2019-05-11T04:05:30.356Z,7.40
2019-05-11T04:07:59.317Z,7.40
2019-05-11T04:10:28.244Z,7.40
2019-05-11T04:12:57.215Z,7.40
2019-05-11T04:15:26.064Z,7.50
2019-05-11T04:17:54.783Z,7.70
2019-05-11T04:20:24.012Z,7.80
2019-05-11T04:22:52.668Z,7.90
2019-05-11T04:25:21.352Z,7.90
2019-05-11T04:27:50.044Z,8.00
2019-05-11T04:30:18.997Z,8.00
2019-05-11T04:32:48.264Z,8.20
2019-05-11T04:35:16.955Z,8.20
2019-05-11T04:37:46.077Z,8.30
2019-05-11T04:40:15.065Z,8.50
2019-05-11T04:43:02.711Z,8.60
2019-05-11T04:45:32.437Z,8.90
2019-05-11T04:48:02.079Z,9.10
2019-05-11T04:50:30.894Z,9.20
2019-05-11T04:52:59.644Z,9.20
2019-05-11T04:55:28.325Z,9.20
2019-05-11T04:57:57.029Z,9.20
2019-05-11T05:00:25.732Z,9.30
2019-05-11T05:02:55.638Z,9.30
2019-05-11T05:05:24.296Z,9.40
2019-05-11T05:07:52.972Z,9.60
2019-05-11T05:10:22.389Z,9.90
2019-05-11T05:12:53.316Z,10.20
2019-05-11T05:15:21.872Z,10.50
2019-05-11T05:17:50.575Z,10.70
2019-05-11T05:20:19.247Z,10.80
2019-05-11T05:22:47.907Z,11.00
2019-05-11T05:25:16.917Z,11.30
2019-05-11T05:27:45.639Z,11.30
2019-05-11T05:30:14.598Z,11.70
2019-05-11T05:32:43.249Z,12.20
2019-05-11T05:35:12.404Z,12.40
2019-05-11T05:37:41.070Z,12.40
2019-05-11T05:40:09.915Z,13.30
2019-05-11T05:42:38.579Z,13.60
2019-05-11T05:45:07.826Z,14.60
2019-05-11T05:47:37.032Z,15.40
2019-05-11T05:50:06.737Z,15.50
2019-05-11T05:52:35.395Z,15.00
2019-05-11T05:55:04.351Z,15.00
2019-05-11T05:57:33.287Z,14.90
2019-05-11T06:00:01.971Z,15.10
2019-05-11T06:02:30.668Z,15.30
2019-05-11T06:04:59.340Z,15.10
2019-05-11T06:07:28.127Z,15.20
2019-05-11T06:09:56.819Z,15.30
2019-05-11T06:12:25.471Z,14.80
2019-05-11T06:14:54.118Z,15.30
2019-05-11T06:17:22.829Z,15.10
2019-05-11T06:19:51.509Z,15.30
2019-05-11T06:22:20.247Z,16.10
2019-05-11T06:24:49.281Z,17.20
2019-05-11T06:27:18.021Z,17.60
2019-05-11T06:29:46.691Z,18.10
2019-05-11T06:32:15.635Z,19.10
2019-05-11T06:34:44.339Z,18.70
2019-05-11T06:37:13.042Z,19.00
2019-05-11T06:39:42.113Z,18.60
2019-05-11T06:42:10.868Z,18.60
2019-05-11T06:44:40.011Z,18.30
2019-05-11T06:47:08.708Z,18.80
2019-05-11T06:49:37.359Z,19.50
2019-05-11T06:52:06.019Z,19.70
2019-05-11T06:54:34.677Z,18.70
2019-05-11T06:57:03.359Z,19.10
2019-05-11T06:59:32.036Z,19.60
2019-05-11T07:02:00.710Z,19.70
2019-05-11T07:04:29.374Z,19.90
2019-05-11T07:06:58.040Z,19.40
2019-05-11T07:09:26.993Z,19.60
2019-05-11T07:11:55.687Z,18.60
2019-05-11T07:14:24.421Z,19.40
2019-05-11T07:16:53.373Z,19.60
2019-05-11T07:19:22.155Z,19.10
2019-05-11T07:21:50.799Z,18.80
2019-05-11T07:24:19.477Z,18.30
2019-05-11T07:26:48.487Z,17.90
2019-05-11T07:29:17.470Z,17.50
2019-05-11T07:31:46.183Z,18.50
2019-05-11T07:34:14.826Z,18.40
2019-05-11T07:36:43.510Z,18.10
2019-05-11T07:39:12.322Z,18.10
2019-05-11T07:41:41.093Z,18.80
2019-05-11T07:44:10.338Z,19.30
2019-05-11T07:46:39.018Z,19.00
2019-05-11T07:49:08.742Z,19.30
2019-05-11T07:51:38.887Z,19.30
2019-05-11T07:54:08.558Z,19.40
2019-05-11T07:56:39.019Z,19.90
2019-05-11T07:59:08.105Z,20.20
2019-05-11T08:01:38.594Z,20.20
2019-05-11T08:04:07.839Z,20.40
2019-05-11T08:06:38.937Z,20.40
2019-05-11T08:09:08.497Z,20.50
2019-05-11T08:11:38.909Z,20.60
2019-05-11T08:14:07.934Z,20.30
2019-05-11T08:16:39.139Z,20.90
2019-05-11T08:19:10.391Z,20.80
2019-05-11T08:21:38.872Z,20.70
2019-05-11T08:24:09.152Z,21.00
2019-05-11T08:26:38.726Z,21.60
2019-05-11T08:29:08.203Z,21.30
2019-05-11T08:31:38.541Z,20.60
2019-05-11T08:34:08.823Z,21.20
2019-05-11T08:36:37.973Z,21.20
2019-05-11T08:39:08.010Z,21.30
2019-05-11T08:41:38.447Z,20.40
2019-05-11T08:44:08.891Z,20.10
2019-05-11T08:46:38.548Z,20.00
2019-05-11T08:49:08.795Z,21.00
2019-05-11T08:51:38.758Z,21.70
2019-05-11T08:54:09.054Z,22.00
2019-05-11T08:56:38.346Z,21.60
2019-05-11T08:59:07.972Z,22.10
2019-05-11T09:01:39.262Z,22.00
2019-05-11T09:04:08.960Z,21.40
2019-05-11T09:06:37.959Z,21.90
2019-05-11T09:09:08.986Z,21.30
2019-05-11T09:11:38.901Z,21.50
2019-05-11T09:14:08.373Z,22.10
2019-05-11T09:16:38.398Z,22.40
2019-05-11T09:19:08.785Z,22.40
2019-05-11T09:21:38.395Z,21.40
2019-05-11T09:24:08.494Z,19.80
2019-05-11T09:26:38.931Z,19.40
2019-05-11T09:29:08.740Z,18.00
2019-05-11T09:31:38.214Z,17.50
2019-05-11T09:34:08.969Z,17.40
2019-05-11T09:36:38.863Z,17.30
2019-05-11T09:39:08.626Z,17.10
2019-05-11T09:41:38.323Z,17.10
2019-05-11T09:44:08.994Z,17.30
2019-05-11T09:46:38.484Z,17.50
2019-05-11T09:49:08.012Z,17.80
2019-05-11T09:51:37.981Z,17.70
2019-05-11T09:54:07.820Z,17.30
2019-05-11T09:56:38.247Z,17.30
2019-05-11T09:59:08.883Z,17.40
2019-05-11T10:01:37.935Z,17.00
2019-05-11T10:04:08.967Z,16.80
2019-05-11T10:06:38.779Z,16.90
2019-05-11T10:09:08.383Z,16.90
2019-05-11T10:11:39.676Z,17.10
2019-05-11T10:14:08.390Z,16.90
2019-05-11T10:16:38.635Z,16.90
2019-05-11T10:19:08.501Z,16.70
2019-05-11T10:21:38.518Z,16.90
2019-05-11T10:24:08.494Z,17.00
2019-05-11T10:26:38.402Z,16.70
2019-05-11T10:29:08.025Z,16.80
2019-05-11T10:31:38.543Z,16.80
2019-05-11T10:34:08.623Z,16.70
2019-05-11T10:36:38.553Z,16.70
2019-05-11T10:39:08.856Z,16.70
2019-05-11T10:41:38.713Z,16.60
2019-05-11T10:44:08.359Z,16.90
2019-05-11T10:46:38.029Z,17.20
2019-05-11T10:49:07.978Z,17.30
2019-05-11T10:51:38.383Z,17.20
2019-05-11T10:54:08.778Z,17.20
2019-05-11T10:56:38.826Z,16.70
2019-05-11T10:59:08.089Z,16.80
2019-05-11T11:01:38.129Z,16.70
2019-05-11T11:04:07.856Z,17.00
2019-05-11T11:06:38.644Z,17.20
2019-05-11T11:09:08.466Z,17.50
2019-05-11T11:11:38.257Z,17.20
2019-05-11T11:14:08.729Z,17.00
2019-05-11T11:16:42.482Z,16.90
2019-05-11T11:19:08.316Z,17.20
2019-05-11T11:21:38.322Z,17.30
2019-05-11T11:24:07.667Z,17.30
2019-05-11T11:26:38.077Z,17.50
2019-05-11T11:29:08.627Z,17.20
2019-05-11T11:31:38.138Z,17.40
2019-05-11T11:34:08.201Z,17.70
2019-05-11T11:36:37.770Z,17.40
2019-05-11T11:39:08.314Z,17.30
2019-05-11T11:41:37.971Z,17.10
2019-05-11T11:44:07.907Z,17.00
2019-05-11T11:46:51.262Z,17.10
2019-05-11T11:49:08.275Z,17.10
2019-05-11T11:51:37.878Z,17.30
2019-05-11T11:54:08.749Z,17.70
2019-05-11T11:56:38.194Z,17.20
2019-05-11T11:59:08.492Z,17.20
2019-05-11T12:01:38.555Z,17.30
2019-05-11T12:04:08.245Z,17.10
2019-05-11T12:06:38.582Z,17.20
2019-05-11T12:09:09.016Z,17.40
2019-05-11T12:11:38.192Z,17.40
2019-05-11T12:14:08.663Z,17.40
2019-05-11T12:16:38.872Z,17.20
2019-05-11T12:19:08.326Z,17.00
2019-05-11T12:21:37.901Z,16.70
2019-05-11T12:24:08.205Z,16.70
2019-05-11T12:26:38.923Z,16.70
2019-05-11T12:29:08.178Z,16.60
2019-05-11T12:31:37.907Z,16.50
2019-05-11T12:34:08.787Z,16.50
2019-05-11T12:36:38.675Z,16.30
2019-05-11T12:39:08.643Z,16.00
2019-05-11T12:41:38.768Z,15.90
2019-05-11T12:44:08.237Z,15.90
2019-05-11T12:46:39.543Z,16.00
2019-05-11T12:49:08.127Z,15.90
2019-05-11T12:51:38.299Z,15.90
2019-05-11T12:54:08.315Z,15.90
2019-05-11T12:56:38.335Z,16.00
2019-05-11T12:59:08.204Z,16.00
2019-05-11T13:01:38.218Z,15.80
2019-05-11T13:04:08.849Z,15.80
2019-05-11T13:06:38.537Z,15.90
2019-05-11T13:09:08.511Z,15.70
2019-05-11T13:11:37.963Z,15.40
2019-05-11T13:14:07.977Z,15.50
2019-05-11T13:16:37.801Z,15.80
2019-05-11T13:19:08.374Z,15.80
2019-05-11T13:21:38.335Z,15.80
2019-05-11T13:24:08.363Z,15.60
2019-05-11T13:26:38.002Z,15.50
2019-05-11T13:29:07.932Z,15.40
2019-05-11T13:31:38.429Z,15.40
2019-05-11T13:34:08.344Z,15.50
2019-05-11T13:36:38.204Z,15.60
2019-05-11T13:39:08.994Z,15.70
2019-05-11T13:41:38.388Z,15.70
2019-05-11T13:44:08.048Z,15.80
2019-05-11T13:46:38.852Z,15.70
2019-05-11T13:49:08.533Z,15.80
2019-05-11T13:51:38.774Z,15.70
2019-05-11T13:54:08.009Z,15.50
2019-05-11T13:56:37.896Z,15.40
2019-05-11T13:59:10.403Z,15.40
2019-05-11T14:01:38.889Z,15.40
2019-05-11T14:04:08.572Z,15.50
2019-05-11T14:06:37.986Z,15.40
2019-05-11T14:09:09.125Z,15.40
2019-05-11T14:11:39.004Z,15.50
2019-05-11T14:14:07.934Z,15.60
2019-05-11T14:16:37.887Z,15.60
2019-05-11T14:19:08.704Z,15.50
2019-05-11T14:21:38.434Z,15.40
2019-05-11T14:24:07.966Z,15.10
2019-05-11T14:26:38.598Z,15.20
2019-05-11T14:29:08.532Z,15.30
2019-05-11T14:31:38.625Z,15.30
2019-05-11T14:34:08.811Z,15.10
2019-05-11T14:36:38.787Z,15.00
2019-05-11T14:39:08.645Z,14.90
2019-05-11T14:41:38.303Z,14.90
2019-05-11T14:44:08.958Z,14.80
2019-05-11T14:46:38.392Z,14.60
2019-05-11T14:49:07.874Z,14.50
2019-05-11T14:51:38.841Z,14.50
2019-05-11T14:54:08.342Z,14.30
2019-05-11T14:56:38.109Z,14.40
2019-05-11T14:59:09.032Z,14.40
2019-05-11T15:01:38.248Z,14.40
2019-05-11T15:04:08.991Z,14.50
2019-05-11T15:06:38.621Z,14.60
2019-05-11T15:09:08.234Z,14.60
2019-05-11T15:11:38.853Z,14.60
2019-05-11T15:14:08.271Z,14.70
2019-05-11T15:16:38.411Z,14.70
2019-05-11T15:19:08.066Z,14.80
2019-05-11T15:21:38.717Z,14.70
2019-05-11T15:24:09.141Z,14.80
2019-05-11T15:26:38.253Z,14.90
2019-05-11T15:29:08.199Z,15.00
2019-05-11T15:31:38.152Z,15.00
2019-05-11T15:34:08.605Z,15.00
2019-05-11T15:36:38.615Z,14.80
2019-05-11T15:39:08.599Z,14.80
2019-05-11T15:41:38.902Z,14.80
2019-05-11T15:44:11.384Z,14.80
2019-05-11T15:46:39.046Z,14.80
2019-05-11T15:49:21.723Z,14.70
2019-05-11T15:51:41.078Z,14.70
2019-05-11T15:54:08.732Z,14.50
2019-05-11T15:56:38.463Z,14.50
2019-05-11T15:59:08.588Z,14.40
2019-05-11T16:01:41.057Z,14.30
2019-05-11T16:04:09.098Z,14.00
2019-05-11T16:06:37.929Z,14.00
2019-05-11T16:09:08.477Z,14.00
2019-05-11T16:11:38.738Z,13.90
2019-05-11T16:14:08.755Z,13.70
2019-05-11T16:16:39.071Z,13.70
2019-05-11T16:19:14.478Z,13.70
2019-05-11T16:21:38.753Z,13.70
2019-05-11T16:24:08.159Z,13.60
2019-05-11T16:26:37.348Z,13.50
2019-05-11T16:29:08.500Z,13.40
2019-05-11T16:31:37.863Z,13.40
2019-05-11T16:34:08.096Z,13.30
2019-05-11T16:36:38.988Z,13.20
2019-05-11T16:39:10.511Z,13.20
2019-05-11T16:41:38.974Z,13.10
2019-05-11T16:44:07.993Z,13.20
2019-05-11T16:46:38.856Z,13.10
2019-05-11T16:49:24.938Z,13.10
2019-05-11T16:51:40.860Z,13.00
2019-05-11T16:54:09.544Z,13.10
2019-05-11T16:56:38.456Z,13.10
2019-05-11T16:59:08.193Z,13.10
2019-05-11T17:01:38.041Z,13.10
2019-05-11T17:04:07.587Z,13.10
2019-05-11T17:06:38.533Z,13.10
2019-05-11T17:09:08.830Z,13.00
2019-05-11T17:11:38.436Z,13.00
2019-05-11T17:14:08.349Z,13.10
2019-05-11T17:16:38.560Z,13.10
2019-05-11T17:19:08.115Z,13.10
2019-05-11T17:21:38.152Z,13.10
2019-05-11T17:24:07.166Z,13.10
2019-05-11T17:26:38.360Z,13.10
2019-05-11T17:29:06.354Z,13.20
2019-05-11T17:31:35.370Z,13.20
2019-05-11T17:34:04.031Z,13.20
2019-05-11T17:36:32.732Z,13.10
2019-05-11T17:39:01.430Z,13.10
2019-05-11T17:41:30.092Z,13.10
2019-05-11T17:43:59.103Z,13.10
2019-05-11T17:46:28.004Z,13.10
2019-05-11T17:48:57.204Z,13.10
2019-05-11T17:51:25.858Z,13.10
2019-05-11T17:53:54.811Z,13.10
2019-05-11T17:56:24.121Z,13.10
2019-05-11T17:58:52.759Z,13.10
2019-05-11T18:01:21.796Z,13.00
2019-05-11T18:03:50.452Z,13.00
2019-05-11T18:06:19.686Z,13.00
2019-05-11T18:08:48.389Z,12.90
2019-05-11T18:11:18.502Z,12.90
2019-05-11T18:13:48.230Z,12.90
2019-05-11T18:16:18.730Z,12.90
2019-05-11T18:18:48.401Z,12.90
2019-05-11T18:21:18.810Z,12.90
2019-05-11T18:23:48.115Z,12.90
2019-05-11T18:26:18.097Z,12.80
2019-05-11T18:28:48.274Z,12.80
2019-05-11T18:31:18.141Z,12.80
2019-05-11T18:33:48.683Z,12.70
2019-05-11T18:36:18.316Z,12.70
2019-05-11T18:38:48.710Z,12.70
2019-05-11T18:41:18.737Z,12.60
2019-05-11T18:43:48.409Z,12.60
2019-05-11T18:46:17.310Z,12.60
2019-05-11T18:48:46.031Z,12.50
2019-05-11T18:51:14.738Z,12.50
2019-05-11T18:53:43.530Z,12.40
2019-05-11T18:56:12.373Z,12.40
2019-05-11T18:58:41.094Z,12.40
2019-05-11T19:01:10.940Z,12.30
2019-05-11T19:03:40.920Z,12.30
2019-05-11T19:06:09.630Z,12.30
2019-05-11T19:08:38.591Z,12.30
2019-05-11T19:11:09.149Z,12.20
2019-05-11T19:13:38.728Z,12.20
2019-05-11T19:16:08.721Z,12.20
2019-05-11T19:18:38.775Z,12.20
2019-05-11T19:21:09.208Z,12.10
2019-05-11T19:23:38.178Z,12.00
2019-05-11T19:26:08.347Z,12.00
2019-05-11T19:28:38.510Z,12.00
2019-05-11T19:31:08.278Z,11.90
2019-05-11T19:33:38.314Z,11.90
2019-05-11T19:36:07.934Z,11.80
2019-05-11T19:38:38.407Z,11.80
2019-05-11T19:41:08.030Z,11.70
2019-05-11T19:43:38.193Z,11.70
2019-05-11T19:46:08.912Z,11.70
2019-05-11T19:48:38.430Z,11.60
2019-05-11T19:51:10.932Z,11.50
2019-05-11T19:53:38.608Z,11.50
2019-05-11T19:56:07.865Z,11.40
2019-05-11T19:58:38.074Z,11.40
2019-05-11T20:01:08.658Z,11.30
2019-05-11T20:03:37.924Z,11.20
2019-05-11T20:06:08.732Z,11.20
2019-05-11T20:08:37.260Z,11.10
2019-05-11T20:11:08.074Z,11.10
2019-05-11T20:13:38.663Z,11.10
2019-05-11T20:16:08.246Z,11.10
2019-05-11T20:18:37.075Z,11.00
2019-05-11T20:21:16.692Z,11.00
2019-05-11T20:23:37.983Z,11.00
2019-05-11T20:26:08.865Z,11.00
2019-05-11T20:28:37.943Z,10.90
2019-05-11T20:31:08.029Z,10.90
2019-05-11T20:33:38.578Z,10.90
2019-05-11T20:36:08.692Z,10.90
2019-05-11T20:38:38.659Z,10.80
2019-05-11T20:41:08.372Z,10.90
2019-05-11T20:43:37.281Z,10.80
2019-05-11T20:46:08.184Z,10.90
2019-05-11T20:48:38.255Z,10.80
2019-05-11T20:51:08.130Z,10.80
2019-05-11T20:53:38.775Z,10.80
2019-05-11T20:56:08.554Z,10.80
2019-05-11T20:58:55.304Z,10.70
2019-05-11T21:01:24.578Z,10.70
2019-05-11T21:03:53.433Z,10.70
2019-05-11T21:06:22.587Z,10.70
2019-05-11T21:08:51.328Z,10.60
2019-05-11T21:11:20.326Z,10.60
2019-05-11T21:13:49.096Z,10.60
2019-05-11T21:16:17.727Z,10.70
2019-05-11T21:18:46.458Z,10.60
2019-05-11T21:21:15.449Z,10.60
2019-05-11T21:23:44.129Z,10.60
2019-05-11T21:26:15.700Z,10.60
2019-05-11T21:28:43.647Z,10.60
2019-05-11T21:31:12.415Z,10.50
2019-05-11T21:33:41.129Z,10.50
2019-05-11T21:36:09.794Z,10.50
2019-05-11T21:38:38.699Z,10.50
2019-05-11T21:41:08.807Z,10.50
2019-05-11T21:43:37.784Z,10.50
2019-05-11T21:46:08.181Z,10.50
2019-05-11T21:48:38.577Z,10.50
2019-05-11T21:51:08.619Z,10.50
2019-05-11T21:55:54.699Z,10.50
2019-05-11T21:58:23.692Z,10.50
2019-05-11T22:00:52.584Z,10.40
2019-05-11T22:03:21.571Z,10.40
2019-05-11T22:05:50.572Z,10.40
2019-05-11T22:08:19.227Z,10.50
2019-05-11T22:10:48.187Z,10.40
2019-05-11T22:13:17.756Z,10.40
2019-05-11T22:15:48.691Z,10.40
2019-05-11T22:18:30.262Z,10.40
2019-05-11T22:20:48.605Z,10.30
2019-05-11T22:23:17.740Z,10.30
2019-05-11T22:25:47.618Z,10.30
2019-05-11T22:28:17.676Z,10.30
2019-05-11T22:30:48.358Z,10.30
2019-05-11T22:33:17.716Z,10.30
2019-05-11T22:35:48.076Z,10.30
2019-05-11T22:38:18.341Z,10.30
2019-05-11T22:40:48.755Z,10.30
2019-05-11T22:43:18.201Z,10.20
2019-05-11T22:45:48.604Z,10.20
2019-05-11T22:48:17.910Z,10.20
2019-05-11T22:50:48.153Z,10.10
2019-05-11T22:53:18.823Z,10.10
2019-05-11T22:55:48.547Z,10.10
2019-05-11T22:58:17.924Z,10.10
2019-05-11T23:00:47.009Z,10.10
2019-05-11T23:03:18.599Z,10.10
2019-05-11T23:05:47.698Z,10.10
2019-05-11T23:08:18.154Z,10.10
2019-05-11T23:10:47.879Z,10.10
2019-05-11T23:13:18.629Z,10.10
2019-05-11T23:15:47.808Z,10.10
2019-05-11T23:18:18.004Z,10.10
2019-05-11T23:20:47.844Z,10.00
2019-05-11T23:23:17.844Z,10.00
2019-05-11T23:25:46.643Z,10.00
2019-05-11T23:28:15.307Z,10.00
2019-05-11T23:30:44.038Z,10.00
2019-05-11T23:33:12.677Z,9.90
2019-05-11T23:35:41.327Z,9.90
2019-05-11T23:38:09.951Z,9.90
2019-05-11T23:40:38.602Z,9.90
2019-05-11T23:43:08.678Z,9.90
2019-05-11T23:45:38.284Z,9.80
2019-05-11T23:48:07.359Z,9.80
2019-05-11T23:50:38.364Z,9.80
2019-05-11T23:53:09.851Z,9.80
2019-05-11T23:55:37.994Z,9.80
2019-05-11T23:59:58.090Z,9.80
